createdAt,value
2019-03-23T00:01:35.573Z,61.72
2019-03-23T00:04:06.789Z,62.42
2019-03-23T00:06:38.046Z,62.65
2019-03-23T00:09:09.303Z,62.62
2019-03-23T00:11:40.480Z,62.56
2019-03-23T00:14:11.689Z,62.97
2019-03-23T00:16:42.843Z,61.67
2019-03-23T00:19:15.130Z,62.04
2019-03-23T00:21:46.338Z,62.07
2019-03-23T00:24:17.529Z,62.22
2019-03-23T00:26:48.751Z,63.01
2019-03-23T00:29:19.947Z,62.07
2019-03-23T00:31:51.167Z,61.54
2019-03-23T00:34:22.359Z,60.77
2019-03-23T00:36:53.545Z,61.72
2019-03-23T00:39:24.787Z,61.90
2019-03-23T00:41:55.983Z,61.64
2019-03-23T00:44:27.134Z,61.17
2019-03-23T00:46:58.289Z,60.23
2019-03-23T00:49:29.515Z,60.95
2019-03-23T00:52:00.726Z,60.91
2019-03-23T00:54:32.793Z,60.97
2019-03-23T00:57:03.907Z,60.66
2019-03-23T00:59:35.156Z,61.22
2019-03-23T01:02:06.438Z,60.84
2019-03-23T01:04:37.520Z,59.78
2019-03-23T01:07:08.715Z,59.97
2019-03-23T01:09:39.925Z,59.50
2019-03-23T01:12:11.007Z,60.53
2019-03-23T01:14:42.110Z,59.04
2019-03-23T01:17:14.383Z,58.48
2019-03-23T01:19:45.559Z,59.27
2019-03-23T01:22:17.754Z,58.70
2019-03-23T01:24:48.969Z,59.39
2019-03-23T01:27:21.131Z,59.55
2019-03-23T01:29:53.359Z,59.55
2019-03-23T01:32:24.552Z,59.97
2019-03-23T01:34:55.662Z,59.59
2019-03-23T01:37:26.839Z,59.29
2019-03-23T01:39:58.008Z,59.42
2019-03-23T01:42:29.188Z,59.78
2019-03-23T01:45:00.399Z,59.84
2019-03-23T01:47:31.608Z,59.00
2019-03-23T01:50:02.813Z,59.37
2019-03-23T01:52:34.029Z,59.04
2019-03-23T01:55:08.307Z,59.26
2019-03-23T01:57:40.591Z,58.86
2019-03-23T02:00:13.061Z,59.32
2019-03-23T02:02:44.267Z,58.46
2019-03-23T02:05:15.506Z,59.02
2019-03-23T02:07:46.688Z,59.24
2019-03-23T02:10:17.822Z,59.10
2019-03-23T02:12:49.029Z,58.89
2019-03-23T02:15:20.130Z,59.10
2019-03-23T02:17:51.313Z,58.00
2019-03-23T02:20:22.507Z,58.65
2019-03-23T02:22:53.608Z,58.71
2019-03-23T02:25:24.801Z,59.21
2019-03-23T02:27:56.538Z,59.27
2019-03-23T02:30:27.731Z,59.64
2019-03-23T02:32:58.828Z,60.59
2019-03-23T02:35:29.997Z,60.59
2019-03-23T02:38:01.215Z,60.64
2019-03-23T02:40:32.358Z,61.23
2019-03-23T02:43:03.523Z,61.18
2019-03-23T02:45:34.717Z,60.38
2019-03-23T02:48:05.892Z,60.56
2019-03-23T02:50:36.981Z,60.42
2019-03-23T02:53:08.069Z,61.11
2019-03-23T02:55:39.288Z,61.67
2019-03-23T02:58:10.497Z,59.36
2019-03-23T03:00:41.612Z,59.78
2019-03-23T03:03:12.808Z,59.00
2019-03-23T03:05:43.965Z,58.98
2019-03-23T03:08:15.152Z,59.50
2019-03-23T03:10:46.556Z,58.90
2019-03-23T03:13:18.807Z,58.85
2019-03-23T03:15:49.934Z,58.71
2019-03-23T03:18:21.028Z,59.42
2019-03-23T03:20:52.148Z,59.31
2019-03-23T03:23:24.314Z,59.53
2019-03-23T03:25:55.520Z,58.66
2019-03-23T03:28:26.723Z,59.48
2019-03-23T03:30:58.836Z,59.30
2019-03-23T03:33:30.070Z,59.08
2019-03-23T03:36:01.304Z,59.32
2019-03-23T03:38:32.484Z,59.93
2019-03-23T03:41:03.654Z,59.45
2019-03-23T03:43:34.877Z,59.77
2019-03-23T03:46:06.054Z,59.37
2019-03-23T03:48:38.346Z,59.61
2019-03-23T03:51:09.530Z,59.77
2019-03-23T03:53:40.728Z,60.08
2019-03-23T03:56:11.897Z,60.39
2019-03-23T03:58:43.099Z,60.15
2019-03-23T04:01:14.285Z,60.79
2019-03-23T04:03:45.508Z,60.80
2019-03-23T04:06:16.688Z,60.93
2019-03-23T04:08:47.871Z,61.66
2019-03-23T04:11:20.123Z,61.74
2019-03-23T04:13:51.299Z,62.39
2019-03-23T04:16:22.616Z,62.75
2019-03-23T04:18:53.793Z,63.48
2019-03-23T04:21:24.967Z,62.96
2019-03-23T04:23:56.086Z,62.65
2019-03-23T04:26:27.162Z,62.35
2019-03-23T04:28:58.263Z,62.42
2019-03-23T04:31:29.388Z,62.26
2019-03-23T04:34:00.522Z,62.00
2019-03-23T04:36:32.649Z,62.95
2019-03-23T04:39:05.744Z,62.29
2019-03-23T04:41:36.918Z,62.49
2019-03-23T04:44:08.132Z,62.73
2019-03-23T04:46:39.237Z,63.34
2019-03-23T04:49:10.409Z,62.15
2019-03-23T04:51:41.563Z,61.82
2019-03-23T04:54:12.768Z,60.96
2019-03-23T04:56:43.907Z,60.93
2019-03-23T04:59:15.118Z,60.67
2019-03-23T05:01:46.351Z,60.80
2019-03-23T05:04:17.508Z,61.06
2019-03-23T05:06:48.626Z,61.17
2019-03-23T05:09:19.864Z,60.28
2019-03-23T05:11:51.155Z,61.01
2019-03-23T05:14:22.393Z,60.68
2019-03-23T05:16:53.583Z,60.69
2019-03-23T05:19:26.797Z,61.01
2019-03-23T05:22:02.346Z,61.04
2019-03-23T05:24:33.564Z,60.90
2019-03-23T05:27:05.814Z,60.65
2019-03-23T05:29:40.881Z,60.58
2019-03-23T05:32:11.442Z,59.93
2019-03-23T05:34:42.465Z,59.97
2019-03-23T05:37:15.260Z,59.85
2019-03-23T05:39:46.576Z,59.00
2019-03-23T05:42:17.753Z,58.41
2019-03-23T05:44:50.609Z,56.93
2019-03-23T05:47:21.899Z,54.09
2019-03-23T05:49:53.090Z,49.87
2019-03-23T05:52:24.288Z,48.00
2019-03-23T05:54:55.512Z,47.97
2019-03-23T05:57:27.744Z,47.72
2019-03-23T05:59:58.958Z,45.20
2019-03-23T06:02:31.366Z,43.99
2019-03-23T06:05:02.588Z,43.48
2019-03-23T06:07:33.831Z,44.81
2019-03-23T06:10:06.866Z,49.44
2019-03-23T06:12:38.045Z,53.51
2019-03-23T06:15:09.240Z,53.51
2019-03-23T06:17:41.533Z,55.28
2019-03-23T06:20:12.789Z,56.00
2019-03-23T06:22:45.122Z,56.62
2019-03-23T06:25:16.289Z,55.38
2019-03-23T06:27:48.446Z,56.13
2019-03-23T06:30:20.713Z,56.54
2019-03-23T06:32:52.819Z,53.06
2019-03-23T06:35:24.034Z,47.59
2019-03-23T06:37:55.208Z,44.77
2019-03-23T06:40:26.497Z,45.84
2019-03-23T06:43:00.014Z,49.18
2019-03-23T06:45:33.926Z,53.30
2019-03-23T06:48:05.156Z,54.91
2019-03-23T06:50:36.374Z,54.23
2019-03-23T06:53:07.628Z,55.23
2019-03-23T06:55:38.899Z,55.48
2019-03-23T06:58:10.089Z,55.01
2019-03-23T07:00:41.306Z,54.65
2019-03-23T07:03:13.617Z,54.14
2019-03-23T07:05:45.030Z,53.97
2019-03-23T07:08:16.270Z,52.35
2019-03-23T07:10:47.476Z,48.76
2019-03-23T07:13:18.704Z,45.06
2019-03-23T07:15:50.965Z,45.06
2019-03-23T07:18:22.227Z,45.66
2019-03-23T07:20:53.568Z,46.04
2019-03-23T07:23:24.838Z,44.73
2019-03-23T07:25:57.100Z,44.88
2019-03-23T07:28:28.369Z,47.66
2019-03-23T07:30:59.742Z,50.43
2019-03-23T07:33:31.055Z,52.39
2019-03-23T07:36:02.305Z,53.70
2019-03-23T07:38:33.516Z,52.95
2019-03-23T07:41:04.721Z,52.44
2019-03-23T07:43:35.981Z,52.12
2019-03-23T07:46:07.279Z,52.28
2019-03-23T07:48:38.497Z,54.52
2019-03-23T07:51:09.921Z,52.88
2019-03-23T07:53:41.288Z,52.08
2019-03-23T07:56:12.518Z,52.48
2019-03-23T07:58:43.708Z,53.68
2019-03-23T08:01:14.931Z,53.26
2019-03-23T08:03:46.116Z,58.18
2019-03-23T08:06:17.292Z,55.83
2019-03-23T08:08:48.552Z,58.94
2019-03-23T08:11:19.737Z,56.42
2019-03-23T08:13:50.933Z,60.66
2019-03-23T08:16:23.178Z,59.71
2019-03-23T08:18:54.537Z,58.79
2019-03-23T08:21:25.773Z,58.10
2019-03-23T08:23:57.019Z,58.13
2019-03-23T08:26:28.470Z,58.86
2019-03-23T08:29:03.183Z,58.68
2019-03-23T08:31:33.812Z,57.42
2019-03-23T08:34:06.270Z,60.79
2019-03-23T08:36:39.552Z,63.24
2019-03-23T08:39:10.851Z,63.92
2019-03-23T08:41:42.136Z,64.54
2019-03-23T08:44:13.463Z,63.81
2019-03-23T08:46:46.381Z,61.54
2019-03-23T08:49:17.756Z,63.75
2019-03-23T08:51:48.981Z,65.20
2019-03-23T08:54:20.190Z,68.41
2019-03-23T08:56:51.478Z,68.72
2019-03-23T08:59:22.763Z,69.59
2019-03-23T09:01:54.132Z,70.35
2019-03-23T09:04:25.491Z,68.92
2019-03-23T09:06:56.826Z,67.76
2019-03-23T09:09:28.040Z,67.01
2019-03-23T09:11:59.367Z,65.29
2019-03-23T09:14:33.906Z,64.75
2019-03-23T09:17:05.426Z,65.09
2019-03-23T09:19:36.760Z,67.24
2019-03-23T09:22:08.011Z,68.51
2019-03-23T09:24:39.242Z,68.59
2019-03-23T09:27:12.560Z,70.29
2019-03-23T09:29:45.730Z,68.60
2019-03-23T09:32:17.013Z,67.00
2019-03-23T09:34:48.353Z,66.78
2019-03-23T09:37:20.552Z,65.26
2019-03-23T09:39:55.433Z,63.12
2019-03-23T09:42:27.677Z,64.69
2019-03-23T09:45:00.050Z,62.25
2019-03-23T09:47:31.352Z,61.74
2019-03-23T09:50:02.770Z,64.53
2019-03-23T09:52:33.961Z,64.50
2019-03-23T09:55:08.338Z,62.49
2019-03-23T09:57:40.585Z,61.93
2019-03-23T10:00:13.576Z,64.87
2019-03-23T10:02:45.044Z,65.29
2019-03-23T10:05:16.286Z,65.15
2019-03-23T10:07:49.655Z,63.67
2019-03-23T10:10:23.697Z,64.47
2019-03-23T10:12:54.976Z,63.16
2019-03-23T10:15:27.247Z,61.56
2019-03-23T10:17:58.636Z,63.76
2019-03-23T10:20:30.081Z,62.71
2019-03-23T10:23:01.359Z,61.70
2019-03-23T10:25:34.826Z,62.34
2019-03-23T10:28:10.450Z,61.92
2019-03-23T10:30:41.889Z,66.01
2019-03-23T10:33:16.391Z,61.11
2019-03-23T10:35:48.300Z,60.01
2019-03-23T10:38:19.658Z,61.25
2019-03-23T10:40:50.905Z,63.19
2019-03-23T10:43:22.352Z,60.60
2019-03-23T10:45:54.034Z,59.36
2019-03-23T10:48:29.537Z,63.42
2019-03-23T10:51:02.777Z,59.47
2019-03-23T10:53:34.029Z,61.18
2019-03-23T10:56:06.266Z,61.69
2019-03-23T10:58:37.630Z,62.92
2019-03-23T11:01:08.854Z,64.32
2019-03-23T11:03:41.055Z,64.37
2019-03-23T11:06:12.402Z,64.54
2019-03-23T11:08:43.765Z,64.09
2019-03-23T11:11:18.404Z,63.83
2019-03-23T11:13:49.905Z,63.80
2019-03-23T11:16:21.116Z,62.11
2019-03-23T11:18:52.394Z,63.04
2019-03-23T11:21:23.727Z,62.23
2019-03-23T11:23:54.939Z,60.64
2019-03-23T11:26:28.074Z,61.01
2019-03-23T11:28:59.289Z,59.91
2019-03-23T11:31:31.082Z,59.48
2019-03-23T11:34:05.584Z,59.14
2019-03-23T11:36:36.752Z,58.92
2019-03-23T11:39:09.087Z,58.71
2019-03-23T11:41:40.276Z,58.42
2019-03-23T11:44:11.473Z,58.33
2019-03-23T11:46:42.736Z,58.86
2019-03-23T11:49:13.963Z,58.38
2019-03-23T11:51:46.298Z,58.43
2019-03-23T11:54:17.408Z,58.02
2019-03-23T11:56:48.554Z,57.54
2019-03-23T11:59:20.789Z,56.58
2019-03-23T12:01:52.243Z,58.02
2019-03-23T12:04:24.971Z,58.82
2019-03-23T12:06:57.695Z,59.60
2019-03-23T12:09:30.073Z,59.96
2019-03-23T12:12:01.439Z,58.54
2019-03-23T12:14:40.072Z,58.56
2019-03-23T12:17:24.433Z,58.03
2019-03-23T12:20:10.510Z,58.23
2019-03-23T12:22:48.386Z,57.39
2019-03-23T12:25:22.095Z,56.49
2019-03-23T12:27:53.316Z,56.64
2019-03-23T12:30:26.916Z,59.50
2019-03-23T12:32:58.260Z,57.49
2019-03-23T12:35:29.585Z,57.90
2019-03-23T12:38:00.877Z,58.55
2019-03-23T12:40:32.162Z,57.82
2019-03-23T12:43:03.419Z,58.27
2019-03-23T12:45:34.631Z,56.79
2019-03-23T12:48:05.830Z,56.56
2019-03-23T12:50:37.250Z,56.47
2019-03-23T12:53:08.607Z,57.30
2019-03-23T12:55:41.478Z,57.34
2019-03-23T12:58:14.052Z,57.04
2019-03-23T13:00:45.304Z,57.56
2019-03-23T13:03:17.822Z,57.84
2019-03-23T13:05:49.014Z,57.05
2019-03-23T13:08:20.273Z,56.88
2019-03-23T13:10:51.655Z,56.14
2019-03-23T13:13:22.869Z,55.86
2019-03-23T13:15:54.603Z,56.98
2019-03-23T13:18:27.351Z,58.15
2019-03-23T13:20:59.114Z,56.73
2019-03-23T13:23:30.393Z,56.24
2019-03-23T13:26:02.512Z,56.63
2019-03-23T13:28:34.022Z,59.21
2019-03-23T13:31:06.330Z,58.34
2019-03-23T13:33:37.734Z,57.17
2019-03-23T13:36:08.905Z,56.82
2019-03-23T13:38:40.091Z,56.20
2019-03-23T13:41:11.324Z,56.16
2019-03-23T13:43:42.964Z,56.85
2019-03-23T13:46:14.102Z,57.95
2019-03-23T13:48:52.369Z,58.66
2019-03-23T13:51:27.187Z,58.53
2019-03-23T13:53:58.604Z,57.72
2019-03-23T13:56:30.794Z,58.46
2019-03-23T13:59:02.156Z,58.55
2019-03-23T14:01:34.512Z,59.18
2019-03-23T14:04:09.748Z,59.45
2019-03-23T14:06:41.282Z,59.70
2019-03-23T14:09:12.338Z,59.99
2019-03-23T14:11:43.583Z,60.21
2019-03-23T14:14:15.801Z,59.67
2019-03-23T14:16:47.132Z,59.78
2019-03-23T14:19:18.385Z,60.25
2019-03-23T14:21:49.660Z,60.28
2019-03-23T14:24:21.979Z,60.01
2019-03-23T14:26:53.175Z,59.78
2019-03-23T14:29:24.431Z,60.40
2019-03-23T14:31:56.805Z,60.22
2019-03-23T14:34:28.036Z,60.24
2019-03-23T14:36:59.303Z,60.19
2019-03-23T14:39:31.230Z,60.25
2019-03-23T14:42:05.009Z,60.73
2019-03-23T14:44:36.622Z,60.97
2019-03-23T14:47:08.036Z,61.54
2019-03-23T14:49:39.309Z,61.00
2019-03-23T14:52:11.415Z,61.03
2019-03-23T14:54:48.042Z,61.02
2019-03-23T14:57:20.007Z,61.07
2019-03-23T14:59:51.444Z,61.47
2019-03-23T15:02:24.209Z,61.47
2019-03-23T15:04:55.519Z,61.91
2019-03-23T15:07:33.649Z,61.58
2019-03-23T15:10:07.583Z,62.39
2019-03-23T15:12:39.026Z,62.59
2019-03-23T15:15:10.466Z,62.74
2019-03-23T15:17:48.769Z,62.28
2019-03-23T15:20:15.970Z,61.81
2019-03-23T15:22:47.176Z,62.28
2019-03-23T15:25:19.490Z,62.59
2019-03-23T15:27:50.746Z,62.66
2019-03-23T15:30:22.167Z,63.39
2019-03-23T15:32:53.559Z,63.28
2019-03-23T15:35:24.861Z,63.79
2019-03-23T15:37:57.905Z,63.89
2019-03-23T15:40:29.669Z,63.75
2019-03-23T15:43:00.803Z,63.41
2019-03-23T15:45:33.220Z,63.95
2019-03-23T15:48:05.747Z,64.25
2019-03-23T15:50:37.208Z,64.09
2019-03-23T15:53:09.991Z,64.18
2019-03-23T15:55:41.213Z,63.84
2019-03-23T15:58:12.420Z,64.13
2019-03-23T16:00:44.642Z,64.52
2019-03-23T16:03:17.644Z,64.70
2019-03-23T16:05:50.026Z,64.60
2019-03-23T16:08:22.475Z,64.40
2019-03-23T16:10:55.382Z,63.94
2019-03-23T16:13:29.389Z,65.11
2019-03-23T16:16:00.611Z,66.02
2019-03-23T16:18:31.864Z,67.18
2019-03-23T16:21:14.462Z,67.79
2019-03-23T16:23:38.011Z,68.79
2019-03-23T16:26:10.424Z,69.64
2019-03-23T16:28:42.696Z,68.90
2019-03-23T16:31:14.160Z,69.08
2019-03-23T16:33:46.496Z,69.07
2019-03-23T16:36:17.700Z,69.18
2019-03-23T16:38:48.945Z,68.88
2019-03-23T16:41:23.423Z,67.80
2019-03-23T16:43:55.692Z,67.51
2019-03-23T16:46:27.965Z,67.78
2019-03-23T16:49:00.462Z,67.35
2019-03-23T16:51:31.971Z,68.50
2019-03-23T16:54:03.757Z,67.92
2019-03-23T16:56:36.774Z,66.38
2019-03-23T16:59:09.968Z,66.74
2019-03-23T17:01:40.883Z,67.97
2019-03-23T17:04:20.074Z,66.97
2019-03-23T17:06:53.344Z,66.09
2019-03-23T17:09:25.544Z,66.39
2019-03-23T17:11:57.645Z,66.73
2019-03-23T17:14:29.785Z,66.49
2019-03-23T17:17:04.808Z,66.41
2019-03-23T17:19:35.519Z,66.80
2019-03-23T17:22:07.857Z,66.59
2019-03-23T17:24:40.081Z,66.57
2019-03-23T17:27:12.857Z,66.44
2019-03-23T17:29:48.351Z,66.28
2019-03-23T17:32:20.272Z,66.62
2019-03-23T17:34:53.024Z,66.56
2019-03-23T17:37:26.073Z,66.25
2019-03-23T17:39:57.196Z,66.36
2019-03-23T17:42:29.150Z,66.59
2019-03-23T17:47:40.492Z,66.69
2019-03-23T17:50:11.690Z,66.25
2019-03-23T17:52:42.833Z,65.95
2019-03-23T17:55:22.875Z,65.51
2019-03-23T17:57:55.312Z,65.89
2019-03-23T18:00:29.615Z,65.88
2019-03-23T18:03:00.954Z,66.01
2019-03-23T18:05:32.751Z,65.92
2019-03-23T18:08:29.292Z,65.92
2019-03-23T18:10:48.642Z,65.60
2019-03-23T18:13:23.171Z,65.51
2019-03-23T18:15:54.270Z,65.51
2019-03-23T18:18:25.284Z,65.88
2019-03-23T18:20:56.822Z,65.89
2019-03-23T18:23:29.343Z,65.44
2019-03-23T18:26:02.443Z,65.49
2019-03-23T18:28:33.908Z,65.91
2019-03-23T18:31:05.086Z,65.39
2019-03-23T18:33:39.156Z,65.75
2019-03-23T18:36:12.254Z,66.13
2019-03-23T18:38:43.779Z,65.90
2019-03-23T18:41:15.001Z,66.17
2019-03-23T18:43:47.867Z,66.02
2019-03-23T18:46:24.463Z,66.13
2019-03-23T18:48:55.003Z,66.07
2019-03-23T18:51:26.308Z,66.04
2019-03-23T18:54:00.341Z,65.97
2019-03-23T18:56:32.614Z,66.59
2019-03-23T18:59:06.738Z,66.69
2019-03-23T19:01:37.862Z,66.71
2019-03-23T19:04:12.102Z,66.73
2019-03-23T19:06:49.147Z,66.70
2019-03-23T19:09:20.505Z,66.73
2019-03-23T19:11:51.759Z,66.93
2019-03-23T19:14:23.908Z,66.75
2019-03-23T19:16:55.353Z,66.97
2019-03-23T19:19:30.630Z,67.24
2019-03-23T19:22:01.774Z,66.74
2019-03-23T19:24:32.904Z,66.85
2019-03-23T19:27:04.238Z,66.98
2019-03-23T19:29:35.584Z,66.52
2019-03-23T19:32:06.824Z,67.03
2019-03-23T19:34:38.119Z,66.91
2019-03-23T19:37:09.288Z,67.14
2019-03-23T19:39:40.832Z,67.29
2019-03-23T19:42:12.872Z,67.17
2019-03-23T19:44:44.133Z,67.67
2019-03-23T19:47:17.905Z,67.88
2019-03-23T19:49:49.092Z,68.18
2019-03-23T19:52:20.325Z,67.83
2019-03-23T19:54:52.879Z,67.83
2019-03-23T19:57:24.311Z,67.39
2019-03-23T19:59:55.497Z,67.59
2019-03-23T20:02:26.998Z,68.05
2019-03-23T20:04:58.249Z,67.95
2019-03-23T20:07:33.257Z,68.04
2019-03-23T20:10:02.479Z,68.15
2019-03-23T20:12:33.694Z,68.23
2019-03-23T20:15:07.134Z,68.34
2019-03-23T20:17:38.341Z,68.29
2019-03-23T20:20:09.570Z,67.64
2019-03-23T20:22:41.749Z,67.70
2019-03-23T20:25:13.338Z,67.69
2019-03-23T20:27:45.540Z,67.96
2019-03-23T20:30:16.763Z,68.11
2019-03-23T20:32:47.984Z,68.00
2019-03-23T20:35:19.215Z,67.91
2019-03-23T20:37:50.331Z,68.01
2019-03-23T20:40:22.950Z,67.79
2019-03-23T20:42:54.980Z,67.85
2019-03-23T20:45:29.949Z,67.88
2019-03-23T20:48:00.553Z,67.70
2019-03-23T20:50:32.585Z,68.17
2019-03-23T20:53:04.702Z,68.13
2019-03-23T20:55:35.842Z,68.24
2019-03-23T20:58:07.062Z,67.94
2019-03-23T21:00:38.301Z,68.01
2019-03-23T21:03:09.858Z,67.85
2019-03-23T21:05:42.484Z,68.60
2019-03-23T21:08:14.101Z,68.19
2019-03-23T21:10:46.267Z,67.97
2019-03-23T21:13:17.393Z,67.90
2019-03-23T21:15:48.528Z,67.88
2019-03-23T21:18:19.652Z,67.64
2019-03-23T21:20:50.814Z,68.03
2019-03-23T21:23:22.003Z,67.88
2019-03-23T21:25:53.297Z,67.91
2019-03-23T21:28:24.658Z,67.60
2019-03-23T21:30:56.110Z,67.94
2019-03-23T21:33:32.080Z,67.72
2019-03-23T21:36:01.353Z,68.05
2019-03-23T21:38:32.685Z,68.34
2019-03-23T21:41:03.877Z,68.53
2019-03-23T21:43:35.370Z,68.28
2019-03-23T21:46:06.584Z,68.27
2019-03-23T21:48:37.804Z,68.13
2019-03-23T21:51:09.006Z,68.07
2019-03-23T21:53:40.213Z,68.34
2019-03-23T21:56:11.436Z,68.04
2019-03-23T21:58:42.642Z,68.15
2019-03-23T22:01:13.859Z,68.39
2019-03-23T22:03:45.129Z,68.32
2019-03-23T22:06:16.343Z,68.69
2019-03-23T22:08:47.524Z,68.22
2019-03-23T22:11:18.934Z,68.50
2019-03-23T22:13:50.179Z,68.82
2019-03-23T22:16:21.515Z,69.07
2019-03-23T22:18:52.702Z,68.28
2019-03-23T22:21:25.374Z,68.43
2019-03-23T22:23:56.759Z,68.59
2019-03-23T22:26:27.884Z,68.76
2019-03-23T22:28:59.119Z,69.13
2019-03-23T22:31:30.429Z,69.40
2019-03-23T22:34:02.713Z,69.66
2019-03-23T22:36:35.015Z,69.73
2019-03-23T22:39:07.221Z,69.86
2019-03-23T22:41:38.551Z,70.18
2019-03-23T22:44:09.848Z,69.98
2019-03-23T22:46:41.188Z,70.36
2019-03-23T22:49:12.460Z,70.00
2019-03-23T22:51:43.678Z,70.28
2019-03-23T22:54:14.931Z,70.50
2019-03-23T22:56:47.236Z,70.74
2019-03-23T22:59:18.483Z,70.43
2019-03-23T23:01:49.731Z,70.37
2019-03-23T23:04:21.055Z,70.60
2019-03-23T23:06:52.340Z,70.68
2019-03-23T23:09:23.633Z,70.92
2019-03-23T23:11:54.943Z,70.78
2019-03-23T23:14:27.299Z,70.85
2019-03-23T23:16:58.625Z,70.81
2019-03-23T23:19:29.963Z,71.38
2019-03-23T23:22:01.261Z,71.64
2019-03-23T23:24:33.659Z,71.97
2019-03-23T23:27:04.948Z,72.37
2019-03-23T23:29:36.251Z,72.64
2019-03-23T23:32:07.558Z,72.74
2019-03-23T23:34:38.847Z,72.64
2019-03-23T23:37:10.189Z,72.89
2019-03-23T23:39:41.502Z,73.25
2019-03-23T23:42:13.032Z,73.44
2019-03-23T23:44:44.337Z,73.08
2019-03-23T23:47:16.815Z,72.84
2019-03-23T23:49:48.118Z,73.24
2019-03-23T23:52:20.495Z,73.10
2019-03-23T23:54:52.391Z,73.24
2019-03-23T23:57:23.699Z,73.31
2019-03-23T23:59:54.993Z,73.02
